Tiempo atmosférico en la estación meteorológica de Aliseda, Cáceres (321 m.)



Fecha
DESCASC
Temp. máxima en grados centígrados (hora)
DESCASC
Temp. mínima en grados centígrados (hora)
DESCASC
Temp. media en grados centígrados
DESCASC
Racha de viento máxima en m/sg (hora)
DESCASC
Velocidad máxima media en intervalos de 10 minutos(hora)
DESCASC
Precipitaciones diarias en mm
DESCASC
Precipitaciones de 00:00 a 06:00 en mm
DESCASC
Precipitaciones de 06:00 a 12:00 en mm
DESCASC
Precipitaciones de 12:00 a 18:00 en mm
DESCASC
Precipitaciones de 18:00 a 24:00 en mm
DESCASC
13-10-2019 25 (17:10) 14.2 (04:30) 19.6 7.78 (23:59) 3.61 (13:10) 0 0 0 0 0
12-10-2019 30.2 (16:50) 18.2 (23:59) 24.2 12.5 (18:10) 6.67 (18:10) 0 0 0 0 0
11-10-2019 28.7 (17:00) 14.4 (08:30) 21.6 8.61 (21:40) 4.72 (21:40) 0 0 0 0 0
10-10-2019 31.7 (17:10) 11.8 (00:00) 21.8 5.56 (17:20) 2.78 (17:20) 0 0 0 0 0
09-10-2019 29.5 (17:20) 16.8 (00:00) 23.1 6.94 (17:20) 3.89 (17:40) 0 0 0 0 0
08-10-2019 34.2 (17:10) 15.4 (00:00) 24.8 6.11 (21:10) 3.61 (23:00) 0 0 0 0 0
07-10-2019 33 (17:30) 15.4 (00:00) 24.2 5.83 (16:10) 3.33 (05:50) 0 0 0 0 0
06-10-2019 31 (18:20) 13.2 (00:00) 22.1 6.39 (18:10) 3.33 (16:10) 0 0 0 0 0
05-10-2019 28.9 (17:30) 10.6 (00:00) 19.8 5.83 (13:10) 3.33 (01:10) 0 0 0 0 0
04-10-2019 29.3 (17:10) 15.4 (00:00) 22.3 7.78 (22:10) 4.44 (22:10) 0 0 0 0 0
03-10-2019 29.7 (18:10) 14.4 (00:00) 22.1 7.78 (15:40) 4.17 (21:10) 0 0 0 0 0
02-10-2019 28.2 (17:40) 11.2 (00:00) 19.7 11.94 (16:50) 4.17 (00:10) 0 0 0 0 0
01-10-2019 27.1 (16:30) 15.7 (00:00) 21.4 10.56 (14:10) 5.83 (17:30) 0 0 0 0 0
30-09-2019 32.2 (16:50) 13.1 (00:00) 22.7 8.61 (16:00) 4.17 (17:00) 0 0 0 0 0
29-09-2019 32.1 (18:10) 12 (00:00) 22 5.83 (18:20) 3.61 (01:50) 0 0 0 0 0
28-09-2019 32.3 (17:40) 12.9 (00:00) 22.6 5.83 (16:30) 3.61 (22:30) 0 0 0 0 0
27-09-2019 31.1 (17:20) 14.5 (00:00) 22.8 6.94 (17:30) 3.89 (21:50) 0 0 0 0 0
26-09-2019 30.2 (18:10) 14.8 (00:00) 22.5 5.83 (17:20) 3.61 (00:10) 0 0 0 0 0
25-09-2019 26.4 (16:50) 13.1 (00:00) 19.8 8.61 (16:50) 5 (17:00) 0 0 0 0 0
24-09-2019 25.8 (14:00) 13.8 (00:00) 19.8 8.33 (14:00) 5 (17:40) 0 0 0 0 0
23-09-2019 27 (17:30) 11.9 (00:00) 19.4 6.39 (16:50) 3.61 (21:20) 0 0 0 0 0
22-09-2019 22.6 (18:00) 14.4 (00:00) 18.5 11.39 (14:50) 6.11 (15:00) 1.2 1.2 0 0 0
21-09-2019 21.6 (20:20) 16.9 (00:00) 19.3 11.67 (22:40) 5.56 (22:40) 9 0 3.6 3 2.4
20-09-2019 26.6 (16:20) 18 (00:00) 22.3 9.72 (16:10) 4.72 (16:10) 0 0 0 0 0
19-09-2019 30.8 (17:40) 16.3 (00:00) 23.5 8.06 (17:50) 4.17 (17:50) 0 0 0 0 0
18-09-2019 30.9 (18:10) 15.4 (00:00) 23.1 8.89 (13:40) 4.44 (16:50) 0 0 0 0 0
17-09-2019 31.7 (18:20) 17.7 (00:00) 24.7 13.06 (22:20) 6.39 (22:20) 0 0 0 0 0

Gráficas

Temp. máximas Temp. mínimas Temp. medias Precipitaciones Rachas de viento máximas Velocidades máximas media en intervalos de 10 minutos

Datos horarios

Fecha y hora oficial Temperatura (ºC) Velocidad del viento (km/h) Dirección del viento Racha (km/h) Dirección de racha Precipitación (mm) Presión (hPa) Tendencia (hPa) Humedad (%)
2019-10-16 23:00:00 16.4 8 Sudoeste 13 Sudoeste 0 -- -- 62
2019-10-16 22:00:00 16.2 8 Sudoeste 16 Sudoeste 0 -- -- 62
2019-10-16 21:00:00 17.5 10 Sudoeste 17 Sudoeste 0 -- -- 57
2019-10-16 20:00:00 18.2 9 Sudoeste 18 Sudoeste 0 -- -- 54
2019-10-16 19:00:00 19.7 10 Sur 22 Sur 0 -- -- 52
2019-10-16 18:00:00 19.9 13 Sur 30 Sur 0 -- -- 51
2019-10-16 17:00:00 19.9 12 Sudoeste 26 Sudoeste 0 -- -- 51
2019-10-16 16:00:00 19.7 4 Sudoeste 22 Sur 0 -- -- 50
2019-10-16 15:00:00 18.6 8 Sudoeste 21 Sudoeste 0 -- -- 57
2019-10-16 14:00:00 17.9 7 Sudoeste 28 Sur 0 -- -- 57
2019-10-16 13:00:00 17.4 9 Sur 19 Sur 0 -- -- 62
2019-10-16 12:00:00 16.4 11 Sur 18 Sur 0 -- -- 65
2019-10-16 11:00:00 13.6 0 Calma 4 Noroeste 0 -- -- 80
2019-10-16 10:00:00 10.4 0 Calma 0 Calma 0 -- -- 90
2019-10-16 09:00:00 7.5 0 Calma 2 Noroeste 0 -- -- 93
2019-10-16 08:00:00 8 0 Calma 2 Noroeste 0 -- -- 92
2019-10-16 07:00:00 8.6 0 Calma 2 Noroeste 0 -- -- 90
2019-10-16 06:00:00 8.8 0 Calma 2 Noroeste 0 -- -- 89
2019-10-16 05:00:00 9.2 0 Calma 4 Norte 0 -- -- 86
2019-10-16 04:00:00 11.2 4 Oeste 10 Sudoeste 0 -- -- 78
2019-10-16 03:00:00 11.6 3 Oeste 19 Sudoeste 0 -- -- 75
2019-10-16 02:00:00 13.6 12 Sudoeste 17 Sudoeste 0 -- -- 65
2019-10-16 01:00:00 13.6 9 Oeste 16 Sudoeste 0 -- -- 66
2019-10-16 00:00:00 14.8 9 Sudoeste 14 Sudoeste 0 -- -- 58
2019-10-15 23:00:00 14.7 12 Sudoeste 15 Sudoeste 0 -- -- 59
2019-10-15 22:00:00 14.5 12 Sudoeste 15 Sudoeste 0 -- -- 60
2019-10-15 21:00:00 14.8 9 Sudoeste 15 Sudoeste 0 -- -- 60
2019-10-15 20:00:00 15.6 7 Sudoeste 12 Sur 0 -- -- 61
2019-10-15 19:00:00 17.5 4 Sur 11 Sudoeste 0 -- -- 54
2019-10-15 18:00:00 17.6 4 Sur 11 Sudoeste 0 -- -- 53
2019-10-15 17:00:00 17.7 7 Sudoeste 12 Noroeste 0 -- -- 52
2019-10-15 16:00:00 17.2 5 Noroeste 20 Oeste 0 -- -- 53
2019-10-15 15:00:00 18.2 4 Sudoeste 17 Noroeste 0 -- -- 52
2019-10-15 14:00:00 16.6 9 Noroeste 16 Noroeste 0 -- -- 53
2019-10-15 13:00:00 16.2 5 Norte 15 Oeste 0 -- -- 60
2019-10-15 12:00:00 14.8 4 Noroeste 11 Oeste 0 -- -- 71
2019-10-15 11:00:00 12.6 3 Noroeste 13 Oeste 0 -- -- 83
2019-10-15 10:00:00 10 5 Oeste 10 Sudoeste 0 -- -- 87
2019-10-15 09:00:00 9.2 5 Oeste 13 Sudoeste 0 -- -- 83
2019-10-15 08:00:00 9.2 6 Sudoeste 10 Sudoeste 0 -- -- 88
2019-10-15 07:00:00 9.1 4 Sudoeste 15 Sudoeste 0 -- -- 83
2019-10-15 06:00:00 9.9 6 Sudoeste 14 Sudoeste 0 -- -- 81
2019-10-15 05:00:00 10.4 9 Sudoeste 13 Sudoeste 0 -- -- 80
2019-10-15 04:00:00 10.3 8 Sudoeste 13 Sudoeste 0 -- -- 81
2019-10-15 03:00:00 10.4 8 Sudoeste 13 Oeste 0 -- -- 80
2019-10-15 02:00:00 10.8 8 Sudoeste 18 Oeste 0 -- -- 77
2019-10-15 01:00:00 10.9 9 Sudoeste 17 Oeste 0 -- -- 75
2019-10-15 00:00:00 11.8 13 Sudoeste 22 Oeste 0 -- -- 70
2019-10-14 23:00:00 12 13 Sudoeste 18 Sudoeste 0 -- -- 71
2019-10-14 22:00:00 12.7 11 Sudoeste 22 Sudoeste 0 -- -- 67
2019-10-14 21:00:00 13.6 10 Oeste 21 Oeste 0 -- -- 66
2019-10-14 20:00:00 15 11 Oeste 31 Oeste 0 -- -- 66
2019-10-14 19:00:00 16.4 17 Oeste 33 Oeste 0 -- -- 61
2019-10-14 18:00:00 16.3 20 Oeste 39 Oeste 0.2 -- -- 70
2019-10-14 17:00:00 14.4 10 Sudoeste 24 Sudoeste 0 -- -- 83
2019-10-14 16:00:00 13.5 17 Sudoeste 26 Sudoeste 0.6 -- -- 80
2019-10-14 15:00:00 14.1 13 Sudoeste 32 Sudoeste 2.6 -- -- 87
2019-10-14 14:00:00 14.7 19 Sudoeste 37 Oeste 3.4 -- -- 88
2019-10-14 13:00:00 16.2 14 Sur 28 Sur 0 -- -- 74
2019-10-14 12:00:00 15.4 17 Sudoeste 41 Sur 0 -- -- 76
2019-10-14 11:00:00 14.9 14 Sudoeste 26 Oeste 0 -- -- 79
2019-10-14 10:00:00 13.8 8 Sur 19 Sudoeste 0 -- -- 88
2019-10-14 09:00:00 13.9 15 Sudoeste 27 Sudoeste 0 -- -- 86
2019-10-14 08:00:00 14.3 12 Sudoeste 25 Oeste 0 -- -- 88
2019-10-14 07:00:00 15.6 9 Sudoeste 36 Sudeste 1.4 -- -- 89
2019-10-14 06:00:00 16.5 21 Sur 39 Sur 1.6 -- -- 85
2019-10-14 05:00:00 16.5 13 Sur 26 Sur 0 -- -- 78
2019-10-14 04:00:00 16.9 4 Sudoeste 15 Sudoeste 0 -- -- 75
2019-10-14 03:00:00 17 8 Sudoeste 18 Sur 0 -- -- 73
2019-10-14 02:00:00 17.9 8 Sudoeste 13 Sudoeste 0 -- -- 68
2019-10-14 01:00:00 18.6 5 Sudoeste 17 Sur 0 -- -- 62
2019-10-14 00:00:00 21.8 10 Sur 28 Sudoeste 0 -- -- 53
2019-10-13 23:00:00 20.2 7 Este 12 Sudeste 0 -- -- 57
2019-10-13 22:00:00 20.2 4 Sur 14 Sudeste 0 -- -- 55
2019-10-13 21:00:00 19.1 3 Sur 9 Sur 0 -- -- 57
2019-10-13 20:00:00 21.5 0 Calma 15 Sur 0 -- -- 50
2019-10-13 19:00:00 24.3 10 Oeste 22 Oeste 0 -- -- 45
2019-10-13 18:00:00 24.9 10 Sur 21 Sudoeste 0 -- -- 43
2019-10-13 17:00:00 24.5 10 Sudeste 26 Sudeste 0 -- -- 44
2019-10-13 16:00:00 24.2 13 Sudoeste 26 Sudoeste 0 -- -- 47
2019-10-13 15:00:00 23.1 6 Sudoeste 23 Oeste 0 -- -- 50
2019-10-13 14:00:00 21 6 Noroeste 21 Sudoeste 0 -- -- 61
2019-10-13 13:00:00 18.7 9 Sudoeste 18 Sur 0 -- -- 69
2019-10-13 12:00:00 17.8 7 Sudoeste 14 Sur 0 -- -- 75
2019-10-13 11:00:00 16.6 4 Sudoeste 14 Este 0 -- -- 80
2019-10-13 10:00:00 15.6 8 Sudeste 21 Sur 0 -- -- 84
2019-10-13 09:00:00 15.2 9 Sur 22 Sur 0 -- -- 85
2019-10-13 08:00:00 15 7 Sur 18 Sur 0 -- -- 85
2019-10-13 07:00:00 14.7 5 Sudoeste 15 Sur 0 -- -- 83
2019-10-13 06:00:00 14.9 6 Sudoeste 14 Sur 0 -- -- 78
2019-10-13 05:00:00 14.8 5 Sur 11 Sudeste 0 -- -- 77
2019-10-13 04:00:00 15.1 6 Sudoeste 13 Oeste 0 -- -- 76
2019-10-13 03:00:00 16 4 Sudoeste 17 Sudoeste 0 -- -- 71
2019-10-13 02:00:00 17 10 Sudoeste 17 Sudoeste 0 -- -- 69
2019-10-13 01:00:00 17.1 6 Sudoeste 17 Sur 0 -- -- 68
2019-10-13 00:00:00 18.2 5 Sudoeste 22 Sudoeste 0 -- -- 67
2019-10-12 23:00:00 19.8 13 Sudoeste 22 Sudoeste 0 -- -- 66
2019-10-12 22:00:00 21.5 10 Sudoeste 25 Oeste 0 -- -- 65
2019-10-12 21:00:00 24.6 13 Sudoeste 25 Sudoeste 0 -- -- 54
2019-10-12 20:00:00 26.1 10 Sudoeste 38 Oeste 0 -- -- 42
2019-10-12 19:00:00 27.9 19 Sudoeste 45 Sudoeste 0 -- -- 36
2019-10-12 18:00:00 29.7 19 Sudoeste 41 Sudoeste 0 -- -- 36
2019-10-12 17:00:00 30.1 21 Sudoeste 40 Sudoeste 0 -- -- 34
2019-10-12 16:00:00 29.9 19 Sudoeste 41 Sur 0 -- -- 34
2019-10-12 15:00:00 29.2 12 Sudoeste 32 Sudoeste 0 -- -- 35
2019-10-12 14:00:00 28.5 12 Sur 28 Sudoeste 0 -- -- 42
2019-10-12 13:00:00 27.2 6 Sudoeste 19 Sudeste 0 -- -- 45
2019-10-12 12:00:00 25.3 4 Nordeste 15 Este 0 -- -- 52
2019-10-12 11:00:00 22.6 6 Sur 17 Este 0 -- -- 62
2019-10-12 10:00:00 21.1 5 Este 10 Este 0 -- -- 67
2019-10-12 09:00:00 20 3 Sur 9 Sudeste 0 -- -- 69
2019-10-12 08:00:00 19.2 3 Sur 10 Sur 0 -- -- 71
2019-10-12 07:00:00 20.4 9 Sudoeste 12 Sudoeste 0 -- -- 66
2019-10-12 06:00:00 20.2 3 Sur 9 Sudeste 0 -- -- 66
2019-10-12 05:00:00 20.3 0 Calma 7 Oeste 0 -- -- 64
2019-10-12 04:00:00 21.3 3 Norte 9 Sudoeste 0 -- -- 62
2019-10-12 03:00:00 21.1 4 Sudoeste 11 Sudoeste 0 -- -- 61
2019-10-12 02:00:00 22.2 6 Sudoeste 19 Sur 0 -- -- 57
2019-10-12 01:00:00 22.9 9 Sudoeste 26 Sur 0 -- -- 53
2019-10-12 00:00:00 23 11 Oeste 24 Sur 0 -- -- 52
2019-10-11 23:00:00 24.1 14 Sur 26 Sudeste 0 -- -- 48
2019-10-11 22:00:00 25 16 Sur 31 Sur 0 -- -- 46
2019-10-11 21:00:00 25.5 8 Sur 15 Sudoeste 0 -- -- 42
2019-10-11 20:00:00 26.4 6 Sudoeste 16 Sur 0 -- -- 40
2019-10-11 19:00:00 27.5 8 Sur 25 Sudoeste 0 -- -- 37
2019-10-11 18:00:00 28.1 8 Sudoeste 20 Sudoeste 0 -- -- 36
2019-10-11 17:00:00 28.7 8 Sudoeste 21 Sudoeste 0 -- -- 34
2019-10-11 16:00:00 28 11 Sudoeste 26 Sur 0 -- -- 36
2019-10-11 15:00:00 28.3 12 Sur 30 Sudoeste 0 -- -- 36
2019-10-11 14:00:00 27.4 13 Sudoeste 28 Sur 0 -- -- 38
2019-10-11 13:00:00 26.7 10 Sudoeste 23 Sudoeste 0 -- -- 43
2019-10-11 12:00:00 25.8 8 Sudeste 23 Sudeste 0 -- -- 45
2019-10-11 11:00:00 23.4 4 Sudeste 15 Nordeste 0 -- -- 47
2019-10-11 10:00:00 19.1 4 Sudeste 15 Sur 0 -- -- 52
2019-10-11 09:00:00 15.8 3 Norte 9 Este 0 -- -- 59
2019-10-11 08:00:00 15.6 2 Norte 29 Sur 0 -- -- 56
2019-10-11 07:00:00 15.1 4 Nordeste 8 Nordeste 0 -- -- 60
2019-10-11 06:00:00 15.5 0 Calma 4 Sur 0 -- -- 61
2019-10-11 05:00:00 16.3 0 Calma 4 Sur 0 -- -- 56
2019-10-11 04:00:00 16.1 0 Calma 2 Nordeste 0 -- -- 55
2019-10-11 03:00:00 17.5 0 Calma 6 Sur 0 -- -- 50
2019-10-11 02:00:00 17.9 0 Calma 4 Sudeste 0 -- -- 50
2019-10-11 01:00:00 18.5 0 Calma 4 Sudoeste 0 -- -- 47
2019-10-11 00:00:00 19.5 3 Sur 5 Sur 0 -- -- 45
2019-10-10 23:00:00 20.8 3 Sur 7 Sur 0 -- -- 42
2019-10-10 22:00:00 21.8 5 Sudeste 10 Sur 0 -- -- 40
2019-10-10 21:00:00 23.2 9 Sur 10 Sur 0 -- -- 38
2019-10-10 20:00:00 25 6 Sudoeste 9 Sudoeste 0 -- -- 37
2019-10-10 19:00:00 30.4 9 Sudoeste 14 Sudoeste 0 -- -- 29
2019-10-10 18:00:00 31.3 8 Sudoeste 20 Oeste 0 -- -- 26
2019-10-10 17:00:00 31.3 8 Sudoeste 18 Sudoeste 0 -- -- 23
2019-10-10 16:00:00 30.2 5 Este 15 Nordeste 0 -- -- 24
2019-10-10 15:00:00 28.6 4 Nordeste 11 Nordeste 0 -- -- 26
2019-10-10 14:00:00 27.3 7 Noroeste 14 Nordeste 0 -- -- 28
2019-10-10 13:00:00 24.7 8 Nordeste 15 Este 0 -- -- 32
2019-10-10 12:00:00 21.3 9 Nordeste 14 Nordeste 0 -- -- 37
2019-10-10 11:00:00 18.8 6 Nordeste 10 Este 0 -- -- 43
2019-10-10 10:00:00 15.9 4 Oeste 8 Oeste 0 -- -- 47
2019-10-10 09:00:00 12.1 2 Sudoeste 8 Sudoeste 0 -- -- 58
2019-10-10 08:00:00 12.4 4 Sudoeste 8 Sudoeste 0 -- -- 56
2019-10-10 07:00:00 12.8 5 Sudoeste 9 Oeste 0 -- -- 54
2019-10-10 06:00:00 14.3 4 Sudoeste 13 Sudoeste 0 -- -- 49
2019-10-10 05:00:00 15.5 4 Sudoeste 15 Sudoeste 0 -- -- 45
2019-10-10 04:00:00 14.8 3 Sudoeste 10 Sudoeste 0 -- -- 46
2019-10-10 03:00:00 15.4 5 Sudoeste 10 Oeste 0 -- -- 43
2019-10-10 02:00:00 16.4 7 Sudoeste 13 Oeste 0 -- -- 39
2019-10-10 01:00:00 18 5 Oeste 15 Sudoeste 0 -- -- 36
2019-10-10 00:00:00 20 9 Oeste 14 Sudoeste 0 -- -- 32
2019-10-09 23:00:00 20.3 9 Oeste 14 Oeste 0 -- -- 29
2019-10-09 22:00:00 21.6 7 Oeste 18 Oeste 0 -- -- 27
2019-10-09 21:00:00 23.9 12 Oeste 17 Oeste 0 -- -- 24
2019-10-09 20:00:00 25.7 9 Oeste 20 Noroeste 0 -- -- 20
2019-10-09 19:00:00 28.8 10 Noroeste 23 Noroeste 0 -- -- 16
2019-10-09 18:00:00 29.2 12 Noroeste 25 Noroeste 0 -- -- 14
2019-10-09 17:00:00 29.4 12 Noroeste 22 Norte 0 -- -- 25
2019-10-09 16:00:00 28.4 9 Noroeste 21 Oeste 0 -- -- 30
2019-10-09 15:00:00 28.1 9 Noroeste 19 Noroeste 0 -- -- 32
2019-10-09 14:00:00 27.2 6 Noroeste 18 Noroeste 0 -- -- 36
2019-10-09 13:00:00 25.2 9 Norte 18 Norte 0 -- -- 42
2019-10-09 12:00:00 22.4 14 Noroeste 23 Noroeste 0 -- -- 56
2019-10-09 11:00:00 20.5 10 Noroeste 17 Noroeste 0 -- -- 68
2019-10-09 10:00:00 17.9 5 Oeste 13 Oeste 0 -- -- 79
2019-10-09 09:00:00 16.9 5 Oeste 12 Sudoeste 0 -- -- 83
2019-10-09 08:00:00 17 6 Oeste 14 Oeste 0 -- -- 83
2019-10-09 07:00:00 17.9 9 Oeste 17 Oeste 0 -- -- 80
2019-10-09 06:00:00 18.4 9 Sudoeste 16 Sudoeste 0 -- -- 79
2019-10-09 05:00:00 18.9 13 Sudoeste 18 Sudoeste 0 -- -- 77
2019-10-09 04:00:00 19.6 8 Sudoeste 15 Sudoeste 0 -- -- 74
2019-10-09 03:00:00 20.2 10 Sudoeste 15 Oeste 0 -- -- 72
2019-10-09 02:00:00 21.4 9 Oeste 14 Oeste 0 -- -- 66
2019-10-09 01:00:00 22.9 9 Sudoeste 16 Sudoeste 0 -- -- 60
2019-10-09 00:00:00 23.9 9 Sudoeste 18 Oeste 0 -- -- 57
2019-10-08 23:00:00 25.2 13 Sudoeste 21 Oeste 0 -- -- 53
2019-10-08 22:00:00 26.3 13 Oeste 22 Oeste 0 -- -- 49
2019-10-08 21:00:00 24.8 5 Oeste 14 Oeste 0 -- -- 35
2019-10-08 20:00:00 27.3 4 Sur 12 Noroeste 0 -- -- 31
2019-10-08 19:00:00 32.7 7 Norte 14 Norte 0 -- -- 24
2019-10-08 18:00:00 33.6 4 Norte 17 Noroeste 0 -- -- 23
2019-10-08 17:00:00 33.4 6 Este 19 Oeste 0 -- -- 23
2019-10-08 16:00:00 33.6 5 Oeste 17 Oeste 0 -- -- 23
2019-10-08 15:00:00 32.3 7 Oeste 16 Oeste 0 -- -- 24
2019-10-08 14:00:00 31.1 4 Noroeste 14 Oeste 0 -- -- 26
2019-10-08 13:00:00 28.4 7 Noroeste 13 Noroeste 0 -- -- 30
2019-10-08 12:00:00 25.6 2 Norte 6 Norte 0 -- -- 34
2019-10-08 11:00:00 22.8 3 Noroeste 8 Noroeste 0 -- -- 38
2019-10-08 10:00:00 19.5 3 Noroeste 5 Oeste 0 -- -- 45
2019-10-08 09:00:00 15.4 2 Sudoeste 6 Oeste 0 -- -- 51
2019-10-08 08:00:00 15.9 4 Sudoeste 6 Oeste 0 -- -- 53
2019-10-08 07:00:00 16.4 0 Calma 6 Oeste 0 -- -- 51
2019-10-08 06:00:00 17.7 4 Sudoeste 8 Sudoeste 0 -- -- 48
2019-10-08 05:00:00 18.3 0 Calma 6 Sudoeste 0 -- -- 46
2019-10-08 04:00:00 18.9 3 Oeste 8 Sudoeste 0 -- -- 44
2019-10-08 03:00:00 19.1 3 Sudoeste 9 Sur 0 -- -- 43
2019-10-08 02:00:00 19.8 4 Sudoeste 7 Sur 0 -- -- 41
2019-10-08 01:00:00 20.5 3 Sur 6 Oeste 0 -- -- 39
2019-10-08 00:00:00 23.1 5 Sudoeste 12 Sur 0 -- -- 33
2019-10-07 23:00:00 22.8 3 Sudoeste 12 Sudoeste 0 -- -- 33
2019-10-07 22:00:00 24 8 Sudoeste 12 Sudoeste 0 -- -- 30
2019-10-07 21:00:00 24.6 5 Sudoeste 12 Sur 0 -- -- 31
2019-10-07 20:00:00 27.7 8 Sudeste 11 Nordeste 0 -- -- 28
2019-10-07 19:00:00 31.4 9 Norte 16 Noroeste 0 -- -- 23
2019-10-07 18:00:00 32.4 10 Noroeste 20 Noroeste 0 -- -- 23
2019-10-07 17:00:00 32.4 12 Noroeste 21 Noroeste 0 -- -- 24
2019-10-07 16:00:00 32.5 6 Norte 19 Norte 0 -- -- 22
2019-10-07 15:00:00 31.5 5 Noroeste 19 Noroeste 0 -- -- 21
2019-10-07 14:00:00 30.1 7 Norte 17 Norte 0 -- -- 25
2019-10-07 13:00:00 27.7 8 Norte 17 Nordeste 0 -- -- 32
2019-10-07 12:00:00 24.8 6 Noroeste 14 Noroeste 0 -- -- 42
2019-10-07 11:00:00 22.1 7 Oeste 16 Oeste 0 -- -- 50
2019-10-07 10:00:00 19.4 11 Oeste 16 Oeste 0 -- -- 58
2019-10-07 09:00:00 16.3 3 Sudoeste 7 Sur 0 -- -- 66
2019-10-07 08:00:00 15.5 3 Sudoeste 8 Oeste 0 -- -- 68
2019-10-07 07:00:00 18.1 6 Oeste 14 Sudoeste 0 -- -- 61
2019-10-07 06:00:00 18.8 10 Sudoeste 18 Sudoeste 0 -- -- 60
2019-10-07 05:00:00 19.1 6 Oeste 15 Oeste 0 -- -- 54
2019-10-07 04:00:00 18.4 4 Oeste 11 Oeste 0 -- -- 55
2019-10-07 03:00:00 18.4 4 Sudoeste 13 Sudoeste 0 -- -- 52
2019-10-07 02:00:00 20 8 Oeste 12 Oeste 0 -- -- 44
2019-10-07 01:00:00 19 3 Sudoeste 8 Oeste 0 -- -- 44
2019-10-07 00:00:00 20.2 6 Sudoeste 12 Sudoeste 0 -- -- 41
2019-10-06 23:00:00 21 3 Oeste 14 Oeste 0 -- -- 35
2019-10-06 22:00:00 23.9 5 Oeste 13 Oeste 0 -- -- 30
2019-10-06 21:00:00 25.5 8 Oeste 14 Oeste 0 -- -- 28
2019-10-06 20:00:00 26.4 5 Oeste 15 Oeste 0 -- -- 23
2019-10-06 19:00:00 30.3 9 Noroeste 23 Oeste 0 -- -- 18
2019-10-06 18:00:00 30.7 6 Oeste 20 Noroeste 0 -- -- 28
2019-10-06 17:00:00 30.1 9 Noroeste 19 Noroeste 0 -- -- 29
2019-10-06 16:00:00 29.1 7 Oeste 19 Noroeste 0 -- -- 29
2019-10-06 15:00:00 28.1 10 Noroeste 18 Noroeste 0 -- -- 31
2019-10-06 14:00:00 26.8 7 Noroeste 15 Noroeste 0 -- -- 34
2019-10-06 13:00:00 24.7 5 Norte 14 Norte 0 -- -- 40
2019-10-06 12:00:00 21.8 3 Noroeste 10 Oeste 0 -- -- 48
2019-10-06 11:00:00 18.6 4 Oeste 10 Noroeste 0 -- -- 56
2019-10-06 10:00:00 16.5 6 Oeste 10 Oeste 0 -- -- 62
2019-10-06 09:00:00 14.8 7 Sudoeste 11 Sudoeste 0 -- -- 69
2019-10-06 08:00:00 13.9 8 Sudoeste 12 Sudoeste 0 -- -- 72
2019-10-06 07:00:00 13.7 3 Sudoeste 15 Sudoeste 0 -- -- 70
2019-10-06 06:00:00 14.9 9 Sudoeste 15 Sur 0 -- -- 68
2019-10-06 05:00:00 15.2 6 Sudoeste 12 Sudoeste 0 -- -- 67
2019-10-06 04:00:00 16.1 7 Sudoeste 11 Oeste 0 -- -- 65
2019-10-06 03:00:00 15.5 3 Sudoeste 13 Sudoeste 0 -- -- 65
2019-10-06 02:00:00 18 10 Sudoeste 14 Sudoeste 0 -- -- 58
2019-10-06 01:00:00 17.7 8 Sudoeste 16 Oeste 0 -- -- 58
2019-10-06 00:00:00 18.4 9 Sudoeste 14 Sudoeste 0 -- -- 55
2019-10-05 23:00:00 18.3 6 Sudoeste 12 Oeste 0 -- -- 54
2019-10-05 22:00:00 21.4 9 Sudoeste 16 Oeste 0 -- -- 47
2019-10-05 21:00:00 23.8 11 Sudoeste 17 Sudoeste 0 -- -- 44
2019-10-05 20:00:00 24 7 Sudoeste 12 Noroeste 0 -- -- 43
2019-10-05 19:00:00 28.3 8 Noroeste 15 Oeste 0 -- -- 34
2019-10-05 18:00:00 28.8 8 Noroeste 18 Noroeste 0 -- -- 29
2019-10-05 17:00:00 28.6 8 Oeste 19 Oeste 0 -- -- 28
2019-10-05 16:00:00 27.5 6 Sudoeste 15 Noroeste 0 -- -- 28
2019-10-05 15:00:00 25.5 5 Oeste 13 Noroeste 0 -- -- 36
2019-10-05 14:00:00 23.4 4 Oeste 21 Oeste 0 -- -- 44
2019-10-05 13:00:00 21.5 10 Oeste 16 Sudoeste 0 -- -- 52
2019-10-05 12:00:00 18.8 12 Sudoeste 17 Sudoeste 0 -- -- 61
2019-10-05 11:00:00 17 3 Nordeste 4 Este 0 -- -- 69
2019-10-05 10:00:00 13.5 2 Noroeste 5 Noroeste 0 -- -- 81
2019-10-05 09:00:00 11 0 Calma 3 Sur 0 -- -- 90
2019-10-05 08:00:00 11.6 0 Calma 9 Sur 0 -- -- 88
2019-10-05 07:00:00 12.3 0 Calma 10 Noroeste 0 -- -- 83
2019-10-05 06:00:00 13.8 2 Nordeste 10 Sudoeste 0 -- -- 81
2019-10-05 05:00:00 14.5 6 Sudoeste 13 Sudoeste 0 -- -- 77
2019-10-05 04:00:00 14.5 5 Oeste 8 Oeste 0 -- -- 76
2019-10-05 03:00:00 16.8 4 Oeste 12 Sudoeste 0 -- -- 69
2019-10-05 02:00:00 17.8 9 Sudoeste 19 Sudoeste 0 -- -- 67
2019-10-05 01:00:00 18.3 11 Sudoeste 20 Oeste 0 -- -- 66
2019-10-05 00:00:00 18.9 9 Sudoeste 16 Oeste 0 -- -- 65
2019-10-04 23:00:00 20.3 9 Oeste 28 Sudoeste 0 -- -- 62
2019-10-04 22:00:00 22.3 15 Oeste 22 Oeste 0 -- -- 56
2019-10-04 21:00:00 25.4 11 Sur 23 Sur 0 -- -- 46
2019-10-04 20:00:00 26.7 12 Sur 18 Sur 0 -- -- 44
2019-10-04 19:00:00 28.8 10 Oeste 20 Oeste 0 -- -- 37
2019-10-04 18:00:00 29.3 10 Noroeste 21 Oeste 0 -- -- 35
2019-10-04 17:00:00 29.2 3 Noroeste 24 Oeste 0 -- -- 37
2019-10-04 16:00:00 28.2 10 Oeste 22 Oeste 0 -- -- 38
2019-10-04 15:00:00 27.4 9 Noroeste 19 Oeste 0 -- -- 41
2019-10-04 14:00:00 26.2 8 Noroeste 21 Noroeste 0 -- -- 46
2019-10-04 13:00:00 24.7 4 Noroeste 15 Noroeste 0 -- -- 52
2019-10-04 12:00:00 22.3 8 Noroeste 13 Noroeste 0 -- -- 60
2019-10-04 11:00:00 19.8 6 Noroeste 13 Oeste 0 -- -- 68
2019-10-04 10:00:00 17.7 5 Oeste 9 Oeste 0 -- -- 76
2019-10-04 09:00:00 16.6 4 Sudoeste 13 Sudoeste 0 -- -- 79
2019-10-04 08:00:00 16.2 11 Sudoeste 16 Sudoeste 0 -- -- 81
2019-10-04 07:00:00 16.5 9 Sudoeste 14 Sudoeste 0 -- -- 79
2019-10-04 06:00:00 16.5 11 Sudoeste 14 Sudoeste 0 -- -- 79
2019-10-04 05:00:00 15.9 4 Sudoeste 12 Sudoeste 0 -- -- 82
2019-10-04 04:00:00 16.8 7 Sudoeste 13 Oeste 0 -- -- 79
2019-10-04 03:00:00 17.5 9 Sudoeste 16 Oeste 0 -- -- 76
2019-10-04 02:00:00 18.3 9 Sudoeste 14 Sudoeste 0 -- -- 72
2019-10-04 01:00:00 19.3 7 Sudoeste 17 Sudoeste 0 -- -- 68
2019-10-04 00:00:00 20.4 10 Oeste 17 Sudoeste 0 -- -- 64
2019-10-03 23:00:00 21.7 9 Sudoeste 21 Sudoeste 0 -- -- 57
2019-10-03 22:00:00 23.2 11 Sudoeste 26 Sudoeste 0 -- -- 47
2019-10-03 21:00:00 24.1 12 Sudoeste 15 Sudoeste 0 -- -- 29
2019-10-03 20:00:00 26.4 8 Oeste 21 Noroeste 0 -- -- 26
2019-10-03 19:00:00 29.2 13 Oeste 22 Oeste 0 -- -- 20
2019-10-03 18:00:00 29.5 6 Noroeste 19 Noroeste 0 -- -- 21
2019-10-03 17:00:00 29.2 10 Noroeste 22 Noroeste 0 -- -- 23
2019-10-03 16:00:00 28.7 10 Noroeste 28 Noroeste 0 -- -- 23
2019-10-03 15:00:00 27.8 10 Norte 24 Oeste 0 -- -- 25
2019-10-03 14:00:00 26.4 11 Oeste 20 Oeste 0 -- -- 29
2019-10-03 13:00:00 24.6 9 Oeste 19 Noroeste 0 -- -- 37
2019-10-03 12:00:00 21.7 5 Noroeste 14 Oeste 0 -- -- 47
2019-10-03 11:00:00 19.1 9 Oeste 14 Oeste 0 -- -- 55
2019-10-03 10:00:00 17.3 5 Sudoeste 13 Sudoeste 0 -- -- 62
2019-10-03 09:00:00 14.7 10 Sudoeste 15 Sudoeste 0 -- -- 71
2019-10-03 08:00:00 15.1 7 Sudoeste 17 Sudoeste 0 -- -- 69
2019-10-03 07:00:00 15.7 8 Sudoeste 15 Sudoeste 0 -- -- 66
2019-10-03 06:00:00 15.9 6 Sudoeste 14 Oeste 0 -- -- 63
2019-10-03 05:00:00 15.4 6 Sudoeste 13 Sudoeste 0 -- -- 65
2019-10-03 04:00:00 15.3 4 Sudoeste 9 Sudoeste 0 -- -- 63
2019-10-03 03:00:00 16.6 5 Sudoeste 14 Sudoeste 0 -- -- 60
2019-10-03 02:00:00 16.7 7 Sudoeste 10 Sudoeste 0 -- -- 59
2019-10-03 01:00:00 18.9 3 Oeste 18 Oeste 0 -- -- 53
2019-10-03 00:00:00 19.7 12 Oeste 19 Sudoeste 0 -- -- 51
2019-10-02 23:00:00 19.4 6 Oeste 15 Oeste 0 -- -- 40
2019-10-02 22:00:00 19.2 3 Sudeste 15 Oeste 0 -- -- 40
2019-10-02 21:00:00 23.1 9 Oeste 15 Sudoeste 0 -- -- 33
2019-10-02 20:00:00 24.8 7 Oeste 20 Noroeste 0 -- -- 30
2019-10-02 19:00:00 27.2 10 Noroeste 22 Noroeste 0 -- -- 26
2019-10-02 18:00:00 28.1 13 Noroeste 24 Oeste 0 -- -- 25
2019-10-02 17:00:00 27.6 14 Noroeste 43 Noroeste 0 -- -- 25
2019-10-02 16:00:00 26.5 13 Noroeste 24 Noroeste 0 -- -- 27
2019-10-02 15:00:00 24.9 11 Noroeste 23 Noroeste 0 -- -- 32
2019-10-02 14:00:00 23.4 10 Noroeste 21 Oeste 0 -- -- 37
2019-10-02 13:00:00 21.5 9 Norte 23 Noroeste 0 -- -- 43
2019-10-02 12:00:00 19.7 9 Noroeste 17 Noroeste 0 -- -- 51
2019-10-02 11:00:00 16.9 9 Noroeste 15 Noroeste 0 -- -- 63
2019-10-02 10:00:00 14.2 8 Oeste 13 Oeste 0 -- -- 74
2019-10-02 09:00:00 12.6 8 Oeste 12 Oeste 0 -- -- 81
2019-10-02 08:00:00 12.6 3 Oeste 14 Oeste 0 -- -- 80
2019-10-02 07:00:00 12.8 6 Oeste 12 Sudoeste 0 -- -- 82
2019-10-02 06:00:00 12.4 4 Sudoeste 15 Oeste 0 -- -- 81
2019-10-02 05:00:00 13.9 10 Sudoeste 18 Sudoeste 0 -- -- 79
2019-10-02 04:00:00 14.3 9 Sudoeste 15 Sudoeste 0 -- -- 79
2019-10-02 03:00:00 15 12 Sudoeste 20 Oeste 0 -- -- 78
2019-10-02 02:00:00 15.9 14 Oeste 19 Oeste 0 -- -- 75
2019-10-02 01:00:00 17 13 Oeste 22 Oeste 0 -- -- 71
2019-10-02 00:00:00 18.1 13 Oeste 23 Oeste 0 -- -- 66
2019-10-01 23:00:00 19.6 13 Oeste 24 Oeste 0 -- -- 60
2019-10-01 22:00:00 21.1 14 Oeste 25 Oeste 0 -- -- 54
2019-10-01 21:00:00 22.6 12 Oeste 19 Oeste 0 -- -- 43
2019-10-01 20:00:00 24.6 12 Oeste 26 Oeste 0 -- -- 39
2019-10-01 19:00:00 26.2 15 Noroeste 31 Oeste 0 -- -- 38
2019-10-01 18:00:00 26.6 20 Oeste 36 Oeste 0 -- -- 37
2019-10-01 17:00:00 27 18 Noroeste 33 Noroeste 0 -- -- 38
2019-10-01 16:00:00 26.5 18 Oeste 32 Noroeste 0 -- -- 42
2019-10-01 15:00:00 25.4 13 Noroeste 38 Oeste 0 -- -- 46
2019-10-01 14:00:00 24.8 15 Noroeste 35 Noroeste 0 -- -- 46
2019-10-01 13:00:00 23.1 16 Noroeste 29 Oeste 0 -- -- 50
2019-10-01 12:00:00 21.6 14 Noroeste 24 Noroeste 0 -- -- 57
2019-10-01 11:00:00 19.5 14 Noroeste 24 Oeste 0 -- -- 67
2019-10-01 10:00:00 17.3 12 Oeste 24 Oeste 0 -- -- 77
2019-10-01 09:00:00 16.1 12 Sudoeste 17 Oeste 0 -- -- 83
2019-10-01 08:00:00 16.3 13 Sudoeste 19 Sudoeste 0 -- -- 82
2019-10-01 07:00:00 16.9 10 Sudoeste 19 Sudoeste 0 -- -- 81
2019-10-01 06:00:00 16.8 7 Oeste 15 Oeste 0 -- -- 81
2019-10-01 05:00:00 19.9 13 Sudoeste 22 Oeste 0 -- -- 65
2019-10-01 04:00:00 21.5 14 Sudoeste 22 Oeste 0 -- -- 60
2019-10-01 03:00:00 21.1 13 Sudoeste 20 Sudoeste 0 -- -- 65
2019-10-01 02:00:00 21 11 Sudoeste 17 Sudoeste 0 -- -- 68
2019-10-01 01:00:00 21.4 8 Sudoeste 14 Oeste 0 -- -- 63
2019-10-01 00:00:00 22.8 12 Sudoeste 19 Sudoeste 0 -- -- 54
2019-09-30 23:00:00 24.4 11 Sudoeste 23 Sudoeste 0 -- -- 41
2019-09-30 22:00:00 25.8 13 Sudoeste 23 Sudoeste 0 -- -- 32
2019-09-30 21:00:00 27.1 12 Sudoeste 22 Sudoeste 0 -- -- 29
2019-09-30 20:00:00 29.4 9 Sudoeste 20 Sudoeste 0 -- -- 28
2019-09-30 19:00:00 31.5 8 Sudoeste 24 Sudoeste 0 -- -- 19
2019-09-30 18:00:00 32 14 Sudoeste 26 Oeste 0 -- -- 18
2019-09-30 17:00:00 32 15 Sudoeste 25 Sudoeste 0 -- -- 16
2019-09-30 16:00:00 31.8 15 Sudoeste 31 Sudoeste 0 -- -- 17
2019-09-30 15:00:00 31.3 12 Sudoeste 27 Sur 0 -- -- 23
2019-09-30 14:00:00 30.3 6 Sudeste 17 Sudeste 0 -- -- 26
2019-09-30 13:00:00 27.1 4 Nordeste 9 Noroeste 0 -- -- 39
2019-09-30 12:00:00 24 3 Norte 6 Nordeste 0 -- -- 46
2019-09-30 11:00:00 20.7 2 Norte 4 Nordeste 0 -- -- 56
2019-09-30 10:00:00 16.2 0 Calma 2 Este 0 -- -- 69
2019-09-30 09:00:00 13.3 0 Calma 2 Noroeste 0 -- -- 80
2019-09-30 08:00:00 13.8 0 Calma 7 Sur 0 -- -- 79
2019-09-30 07:00:00 14.7 3 Sudoeste 6 Sur 0 -- -- 77
2019-09-30 06:00:00 15.4 4 Sudoeste 6 Oeste 0 -- -- 73
2019-09-30 05:00:00 15.9 3 Sudoeste 6 Sudoeste 0 -- -- 70
2019-09-30 04:00:00 16.8 3 Sudoeste 10 Sudoeste 0 -- -- 66
2019-09-30 03:00:00 17.9 4 Sudoeste 9 Sudoeste 0 -- -- 65
2019-09-30 02:00:00 18.8 5 Sudoeste 15 Oeste 0 -- -- 62
2019-09-30 01:00:00 21.7 9 Sudoeste 15 Sudoeste 0 -- -- 54
2019-09-30 00:00:00 22.4 9 Sudoeste 14 Sudoeste 0 -- -- 49
2019-09-29 23:00:00 23.7 9 Sudoeste 19 Sudoeste 0 -- -- 35
2019-09-29 22:00:00 25 12 Sudoeste 17 Sudoeste 0 -- -- 26
2019-09-29 21:00:00 23 9 Sudoeste 13 Sur 0 -- -- 27
2019-09-29 20:00:00 26.3 6 Oeste 12 Noroeste 0 -- -- 26
2019-09-29 19:00:00 31 5 Norte 21 Noroeste 0 -- -- 21
2019-09-29 18:00:00 32 7 Sudoeste 17 Oeste 0 -- -- 21
2019-09-29 17:00:00 31.1 8 Este 19 Este 0 -- -- 23
2019-09-29 16:00:00 31 5 Noroeste 19 Noroeste 0 -- -- 24
2019-09-29 15:00:00 30.3 7 Oeste 19 Noroeste 0 -- -- 26
2019-09-29 14:00:00 28.9 7 Noroeste 17 Oeste 0 -- -- 31
2019-09-29 13:00:00 27 7 Noroeste 14 Noroeste 0 -- -- 36
2019-09-29 12:00:00 23.5 6 Noroeste 13 Noroeste 0 -- -- 47
2019-09-29 11:00:00 20.6 5 Noroeste 9 Noroeste 0 -- -- 55
2019-09-29 10:00:00 16.7 2 Noroeste 5 Norte 0 -- -- 59
2019-09-29 09:00:00 12.6 3 Sudoeste 7 Noroeste 0 -- -- 71
2019-09-29 08:00:00 12.8 2 Oeste 8 Oeste 0 -- -- 68
2019-09-29 07:00:00 14.8 2 Sudoeste 5 Sur 0 -- -- 70
2019-09-29 06:00:00 17 0 Calma 14 Sudoeste 0 -- -- 58
2019-09-29 05:00:00 17.7 7 Sudoeste 11 Sudoeste 0 -- -- 61
2019-09-29 04:00:00 18.4 3 Oeste 12 Sudoeste 0 -- -- 50
2019-09-29 03:00:00 21.6 8 Sudoeste 15 Sudoeste 0 -- -- 49
2019-09-29 02:00:00 21.8 11 Sudoeste 18 Sudoeste 0 -- -- 43
2019-09-29 01:00:00 21.4 8 Sudoeste 14 Oeste 0 -- -- 37
2019-09-29 00:00:00 22.7 8 Sudoeste 13 Sudoeste 0 -- -- 36
2019-09-28 23:00:00 25.3 10 Sudoeste 19 Sudoeste 0 -- -- 34
2019-09-28 22:00:00 25.1 12 Sudoeste 19 Sudoeste 0 -- -- 33
2019-09-28 21:00:00 23.2 9 Sudoeste 12 Sur 0 -- -- 31
2019-09-28 20:00:00 26.3 5 Sudoeste 13 Sur 0 -- -- 27
2019-09-28 19:00:00 31.4 6 Sudoeste 18 Sudoeste 0 -- -- 20
2019-09-28 18:00:00 32.1 7 Sudoeste 20 Oeste 0 -- -- 21
2019-09-28 17:00:00 31.8 11 Sudoeste 21 Oeste 0 -- -- 23
2019-09-28 16:00:00 31.5 5 Noroeste 19 Sudoeste 0 -- -- 24
2019-09-28 15:00:00 29.6 8 Nordeste 18 Nordeste 0 -- -- 32
2019-09-28 14:00:00 28.5 4 Este 12 Nordeste 0 -- -- 36
2019-09-28 13:00:00 25.9 6 Nordeste 13 Nordeste 0 -- -- 42
2019-09-28 12:00:00 23.2 5 Nordeste 9 Norte 0 -- -- 51
2019-09-28 11:00:00 20.2 3 Noroeste 7 Noroeste 0 -- -- 61
2019-09-28 10:00:00 17.5 0 Calma 3 Sudoeste 0 -- -- 71
2019-09-28 09:00:00 14 3 Sur 6 Sur 0 -- -- 83
2019-09-28 08:00:00 13 0 Calma 3 Sur 0 -- -- 84
2019-09-28 07:00:00 13.7 0 Calma 5 Sur 0 -- -- 82
2019-09-28 06:00:00 14.3 3 Sur 5 Sur 0 -- -- 80
2019-09-28 05:00:00 14.9 3 Sudoeste 5 Sur 0 -- -- 77
2019-09-28 04:00:00 16.1 3 Sudoeste 9 Oeste 0 -- -- 72
2019-09-28 03:00:00 17.6 2 Sudoeste 12 Oeste 0 -- -- 67
2019-09-28 02:00:00 18.9 6 Oeste 11 Oeste 0 -- -- 61
2019-09-28 01:00:00 19.3 4 Oeste 8 Oeste 0 -- -- 56
2019-09-28 00:00:00 21.3 5 Oeste 18 Oeste 0 -- -- 46
2019-09-27 23:00:00 22.8 13 Sudoeste 23 Sudoeste 0 -- -- 41
2019-09-27 22:00:00 23.9 12 Sudoeste 21 Sudoeste 0 -- -- 34
2019-09-27 21:00:00 21.9 4 Sur 7 Sur 0 -- -- 31
2019-09-27 20:00:00 27.8 3 Noroeste 14 Noroeste 0 -- -- 24
2019-09-27 19:00:00 30 11 Noroeste 22 Noroeste 0 -- -- 19
2019-09-27 18:00:00 30.5 12 Noroeste 25 Oeste 0 -- -- 19
2019-09-27 17:00:00 30.7 7 Noroeste 23 Noroeste 0 -- -- 21
2019-09-27 16:00:00 30.3 12 Noroeste 22 Noroeste 0 -- -- 21
2019-09-27 15:00:00 29.6 12 Noroeste 22 Oeste 0 -- -- 23
2019-09-27 14:00:00 28.4 8 Noroeste 16 Noroeste 0 -- -- 30
2019-09-27 13:00:00 27 4 Noroeste 13 Norte 0 -- -- 35
2019-09-27 12:00:00 24.2 5 Oeste 10 Noroeste 0 -- -- 45
2019-09-27 11:00:00 21.5 6 Noroeste 10 Oeste 0 -- -- 50
2019-09-27 10:00:00 18.6 6 Oeste 10 Oeste 0 -- -- 60
2019-09-27 09:00:00 16 5 Sudoeste 9 Oeste 0 -- -- 70
2019-09-27 08:00:00 14.9 6 Sudoeste 10 Sudoeste 0 -- -- 73
2019-09-27 07:00:00 14.8 2 Oeste 7 Sudoeste 0 -- -- 71
2019-09-27 06:00:00 16 5 Sudoeste 9 Sudoeste 0 -- -- 68
2019-09-27 05:00:00 17.4 6 Sudoeste 10 Sudoeste 0 -- -- 64
2019-09-27 04:00:00 17.5 4 Sudoeste 9 Sudoeste 0 -- -- 64
2019-09-27 03:00:00 18.8 3 Oeste 13 Oeste 0 -- -- 60
2019-09-27 02:00:00 19.6 8 Sudoeste 14 Sudoeste 0 -- -- 58
2019-09-27 01:00:00 20.1 5 Sudoeste 12 Oeste 0 -- -- 56
2019-09-27 00:00:00 21 8 Sudoeste 13 Sudoeste 0 -- -- 52
2019-09-26 23:00:00 22.2 8 Sudoeste 14 Oeste 0 -- -- 45
2019-09-26 22:00:00 21.1 7 Sudoeste 10 Sudoeste 0 -- -- 49
2019-09-26 21:00:00 22.5 3 Sudoeste 6 Oeste 0 -- -- 46
2019-09-26 20:00:00 27.4 2 Oeste 13 Noroeste 0 -- -- 36
2019-09-26 19:00:00 29.4 8 Noroeste 17 Noroeste 0 -- -- 32
2019-09-26 18:00:00 29.8 10 Oeste 21 Oeste 0 -- -- 32
2019-09-26 17:00:00 29.7 8 Oeste 19 Noroeste 0 -- -- 33
2019-09-26 16:00:00 29 10 Noroeste 18 Noroeste 0 -- -- 34
2019-09-26 15:00:00 28 9 Norte 20 Oeste 0 -- -- 35
2019-09-26 14:00:00 27.2 5 Norte 15 Noroeste 0 -- -- 37
2019-09-26 13:00:00 25.7 3 Este 9 Noroeste 0 -- -- 43
2019-09-26 12:00:00 23.1 3 Nordeste 8 Oeste 0 -- -- 49
2019-09-26 11:00:00 20.5 2 Noroeste 8 Noroeste 0 -- -- 60
2019-09-26 10:00:00 17.6 3 Oeste 9 Oeste 0 -- -- 70
2019-09-26 09:00:00 15.8 4 Sudoeste 10 Oeste 0 -- -- 76
2019-09-26 08:00:00 15 6 Sudoeste 10 Sudoeste 0 -- -- 78
2019-09-26 07:00:00 15.1 8 Sudoeste 10 Sudoeste 0 -- -- 77
2019-09-26 06:00:00 15.2 5 Sudoeste 12 Sudoeste 0 -- -- 76
2019-09-26 05:00:00 16.1 8 Sudoeste 14 Sudoeste 0 -- -- 72
2019-09-26 04:00:00 16.5 11 Sudoeste 14 Sur 0 -- -- 70
2019-09-26 03:00:00 17.4 5 Sudoeste 16 Sudoeste 0 -- -- 66
2019-09-26 02:00:00 17.8 7 Sudoeste 14 Sudoeste 0 -- -- 64
2019-09-26 01:00:00 18.6 8 Sudoeste 18 Sudoeste 0 -- -- 61
2019-09-26 00:00:00 19.5 13 Sudoeste 20 Oeste 0 -- -- 57
2019-09-25 23:00:00 20.5 13 Sudoeste 22 Oeste 0 -- -- 52
2019-09-25 22:00:00 21.1 9 Oeste 14 Sudoeste 0 -- -- 47
2019-09-25 21:00:00 21 6 Oeste 13 Oeste 0 -- -- 47
2019-09-25 20:00:00 24.8 10 Noroeste 24 Oeste 0 -- -- 38
2019-09-25 19:00:00 26 14 Noroeste 27 Oeste 0 -- -- 35
2019-09-25 18:00:00 26.3 13 Noroeste 28 Oeste 0 -- -- 35
2019-09-25 17:00:00 26.2 18 Noroeste 31 Oeste 0 -- -- 37
2019-09-25 16:00:00 26.1 13 Noroeste 29 Noroeste 0 -- -- 36
2019-09-25 15:00:00 24.9 10 Norte 24 Noroeste 0 -- -- 38
2019-09-25 14:00:00 23.5 10 Norte 26 Noroeste 0 -- -- 41
2019-09-25 13:00:00 21.7 11 Norte 27 Noroeste 0 -- -- 46
2019-09-25 12:00:00 20.9 12 Noroeste 22 Noroeste 0 -- -- 50
2019-09-25 11:00:00 17.5 8 Noroeste 19 Noroeste 0 -- -- 65
2019-09-25 10:00:00 14.9 6 Oeste 14 Oeste 0 -- -- 78
2019-09-25 09:00:00 13.8 7 Oeste 16 Oeste 0 -- -- 83
2019-09-25 08:00:00 13.2 6 Oeste 14 Oeste 0 -- -- 87
2019-09-25 07:00:00 13.7 9 Sudoeste 16 Oeste 0 -- -- 87
2019-09-25 06:00:00 14.2 9 Sudoeste 16 Sudoeste 0 -- -- 87
2019-09-25 05:00:00 14.8 9 Sudoeste 15 Oeste 0 -- -- 85
2019-09-25 04:00:00 15.6 12 Sudoeste 18 Sudoeste 0 -- -- 83
2019-09-25 03:00:00 16.1 11 Sudoeste 21 Oeste 0 -- -- 82
2019-09-25 02:00:00 16.6 10 Oeste 18 Sudoeste 0 -- -- 80
2019-09-25 01:00:00 17.7 14 Oeste 22 Oeste 0 -- -- 74
2019-09-25 00:00:00 18.3 12 Oeste 19 Oeste 0 -- -- 73
2019-09-24 23:00:00 19.4 9 Oeste 20 Sudoeste 0 -- -- 71
2019-09-24 22:00:00 20.7 10 Oeste 23 Oeste 0 -- -- 70
2019-09-24 21:00:00 22 9 Oeste 17 Oeste 0 -- -- 69
2019-09-24 20:00:00 22.3 13 Oeste 26 Oeste 0 -- -- 68
2019-09-24 19:00:00 23.1 14 Oeste 27 Oeste 0 -- -- 70
2019-09-24 18:00:00 24.3 15 Oeste 29 Oeste 0 -- -- 65
2019-09-24 17:00:00 24.6 16 Noroeste 29 Noroeste 0 -- -- 64
2019-09-24 16:00:00 24.5 14 Oeste 26 Oeste 0 -- -- 63
2019-09-24 15:00:00 24.9 10 Noroeste 25 Noroeste 0 -- -- 60
2019-09-24 14:00:00 25.8 16 Oeste 30 Oeste 0 -- -- 54
2019-09-24 13:00:00 23 6 Oeste 19 Oeste 0 -- -- 59
2019-09-24 12:00:00 21.1 6 Oeste 16 Norte 0 -- -- 62
2019-09-24 11:00:00 20.2 7 Noroeste 13 Sur 0 -- -- 61
2019-09-24 10:00:00 18.6 5 Sudoeste 18 Sudoeste 0 -- -- 66
2019-09-24 09:00:00 15.5 5 Sudoeste 18 Sudoeste 0 -- -- 72
2019-09-24 08:00:00 15.5 11 Sudoeste 19 Sudoeste 0 -- -- 69
2019-09-24 07:00:00 16.3 14 Sudoeste 17 Sudoeste 0 -- -- 69
2019-09-24 06:00:00 16.6 9 Sudoeste 15 Oeste 0 -- -- 67
2019-09-24 05:00:00 16.8 10 Sudoeste 17 Sudoeste 0 -- -- 69
2019-09-24 04:00:00 17.5 13 Sudoeste 22 Oeste 0 -- -- 70
2019-09-24 03:00:00 17.9 10 Sudoeste 15 Sudoeste 0 -- -- 72
2019-09-24 02:00:00 18.6 9 Sudoeste 12 Sudoeste 0 -- -- 66
2019-09-24 01:00:00 19.2 8 Sudoeste 13 Oeste 0 -- -- 60
2019-09-24 00:00:00 20 9 Sudoeste 14 Sudoeste 0 -- -- 52
2019-09-23 23:00:00 20.6 9 Sudoeste 13 Sudoeste 0 -- -- 49
2019-09-23 22:00:00 20.8 8 Sudoeste 17 Sudoeste 0 -- -- 51
2019-09-23 21:00:00 22.1 8 Sudoeste 16 Sur 0 -- -- 47
2019-09-23 20:00:00 25 10 Sur 17 Sudoeste 0 -- -- 39
2019-09-23 19:00:00 26.6 7 Sur 18 Sudoeste 0 -- -- 35
2019-09-23 18:00:00 26.7 8 Sudoeste 18 Sudoeste 0 -- -- 36
2019-09-23 17:00:00 26.1 11 Sudoeste 23 Oeste 0 -- -- 37
2019-09-23 16:00:00 25.5 5 Nordeste 20 Oeste 0 -- -- 36
2019-09-23 15:00:00 24.6 8 Oeste 19 Oeste 0 -- -- 41
2019-09-23 14:00:00 23.2 6 Norte 19 Noroeste 0 -- -- 47
2019-09-23 13:00:00 22 6 Noroeste 15 Oeste 0 -- -- 49
2019-09-23 12:00:00 20.2 5 Oeste 14 Oeste 0 -- -- 55
2019-09-23 11:00:00 17 3 Nordeste 5 Norte 0 -- -- 74
2019-09-23 10:00:00 14.8 2 Norte 4 Nordeste 0 -- -- 81
2019-09-23 09:00:00 12.4 0 Calma 5 Sur 0 -- -- 88
2019-09-23 08:00:00 12.1 0 Calma 7 Sudoeste 0 -- -- 88
2019-09-23 07:00:00 12.4 0 Calma 8 Sudoeste 0 -- -- 84
2019-09-23 06:00:00 14.3 4 Sudoeste 10 Sudoeste 0 -- -- 78
2019-09-23 05:00:00 14.6 7 Sudoeste 12 Sudoeste 0 -- -- 77
2019-09-23 04:00:00 14.8 6 Sudoeste 13 Sudoeste 0 -- -- 75
2019-09-23 03:00:00 15.4 9 Sudoeste 16 Sudoeste 0 -- -- 73
2019-09-23 02:00:00 15.9 10 Sudoeste 14 Sudoeste 0 -- -- 70
2019-09-23 01:00:00 16.4 9 Sudoeste 18 Oeste 0 -- -- 68
2019-09-23 00:00:00 17.4 12 Sudoeste 17 Oeste 0 -- -- 65
2019-09-22 23:00:00 18.2 12 Oeste 17 Sudoeste 0 -- -- 62
2019-09-22 22:00:00 18.8 9 Sudoeste 16 Oeste 0 -- -- 60
2019-09-22 21:00:00 19 7 Sudoeste 10 Oeste 0 -- -- 57
2019-09-22 20:00:00 20.9 7 Oeste 22 Oeste 0 -- -- 49
2019-09-22 19:00:00 21.8 14 Noroeste 23 Oeste 0 -- -- 46
2019-09-22 18:00:00 22.6 15 Noroeste 26 Oeste 0 -- -- 48
2019-09-22 17:00:00 22.4 13 Oeste 26 Oeste 0 -- -- 54
2019-09-22 16:00:00 20.8 15 Noroeste 30 Noroeste 0 -- -- 60
2019-09-22 15:00:00 19.4 22 Noroeste 41 Noroeste 0 -- -- 73
2019-09-22 14:00:00 20.6 12 Oeste 30 Oeste 0 -- -- 63
2019-09-22 13:00:00 18.9 8 Oeste 19 Sudoeste 0 -- -- 71
2019-09-22 12:00:00 17.8 8 Oeste 17 Sudoeste 0 -- -- 79
2019-09-22 11:00:00 16.4 10 Sudoeste 18 Sudoeste 0 -- -- 87
2019-09-22 10:00:00 16 13 Sudoeste 22 Sudoeste 0 -- -- 86
2019-09-22 09:00:00 15.1 13 Sudoeste 21 Sudoeste 0 -- -- 88
2019-09-22 08:00:00 14.5 12 Sudoeste 25 Sudoeste 0 -- -- 91
2019-09-22 07:00:00 14.5 12 Sudoeste 23 Oeste 0 -- -- 90
2019-09-22 06:00:00 14.5 16 Oeste 24 Sudoeste 0 -- -- 89
2019-09-22 05:00:00 14.4 15 Sudoeste 23 Oeste 0 -- -- 87
2019-09-22 04:00:00 14.6 11 Oeste 22 Sudoeste 0 -- -- 89
2019-09-22 03:00:00 16.6 9 Sudoeste 29 Sudoeste 0.4 -- -- 86
2019-09-22 02:00:00 18.2 14 Sudoeste 31 Sur 0.2 -- -- 92
2019-09-22 01:00:00 18.3 15 Sudoeste 34 Sudoeste 0.6 -- -- 92
2019-09-22 00:00:00 18.7 10 Sudoeste 28 Sudoeste 0.2 -- -- 91
2019-09-21 23:00:00 18.9 14 Sudoeste 42 Sudoeste 0 -- -- 90
2019-09-21 22:00:00 19.9 6 Sudoeste 34 Sur 1.8 -- -- 88
2019-09-21 21:00:00 21.2 13 Sur 40 Sur 0 -- -- 79
2019-09-21 20:00:00 21.5 10 Sur 36 Sudoeste 0 -- -- 79
2019-09-21 19:00:00 21 5 Noroeste 17 Nordeste 0.4 -- -- 84
2019-09-21 18:00:00 20.7 8 Sur 38 Sur 1.2 -- -- 85
2019-09-21 17:00:00 21.2 19 Sur 33 Sur 0 -- -- 82
2019-09-21 16:00:00 20.4 14 Sur 25 Sur 0 -- -- 87
2019-09-21 15:00:00 18.6 4 Nordeste 13 Este 0 -- -- 90
2019-09-21 14:00:00 18 5 Este 24 Este 0.6 -- -- 90
2019-09-21 13:00:00 17.5 10 Sur 30 Sur 1.2 -- -- 90
2019-09-21 12:00:00 17 8 Sur 28 Sudeste 1 -- -- 89
2019-09-21 11:00:00 17.3 12 Sudeste 37 Sudeste 0.4 -- -- 86
2019-09-21 10:00:00 17.6 6 Este 24 Sudeste 1.8 -- -- 85
2019-09-21 09:00:00 18.3 5 Sudeste 20 Sudoeste 0.2 -- -- 78
2019-09-21 08:00:00 17.9 6 Sur 30 Sudoeste 0.2 -- -- 81
2019-09-21 07:00:00 18.9 7 Nordeste 21 Sudoeste 0 -- -- 74
2019-09-21 06:00:00 19 9 Sur 23 Sur 0 -- -- 73
2019-09-21 05:00:00 19.2 6 Sudeste 20 Sur 0 -- -- 71
2019-09-21 04:00:00 19.4 12 Sur 20 Sur 0 -- -- 69
2019-09-21 03:00:00 19.6 12 Sur 22 Sur 0 -- -- 68
2019-09-21 02:00:00 19.5 10 Sur 21 Sur 0 -- -- 64
2019-09-21 01:00:00 19.6 13 Sur 21 Sur 0 -- -- 62
2019-09-21 00:00:00 19.9 6 Sur 14 Sur 0 -- -- 59
2019-09-20 23:00:00 19.7 5 Sudoeste 13 Sur 0 -- -- 57
2019-09-20 22:00:00 20.8 4 Sur 14 Sudoeste 0 -- -- 51
2019-09-20 21:00:00 21.9 5 Sudoeste 18 Sudoeste 0 -- -- 50
2019-09-20 20:00:00 23.7 8 Sur 25 Sur 0 -- -- 45
2019-09-20 19:00:00 24.6 10 Sudoeste 24 Sudoeste 0 -- -- 50
2019-09-20 18:00:00 25.1 14 Oeste 27 Oeste 0 -- -- 46
2019-09-20 17:00:00 25.8 14 Sudoeste 35 Oeste 0 -- -- 46
2019-09-20 16:00:00 26.4 15 Oeste 33 Sudoeste 0 -- -- 46
2019-09-20 15:00:00 26 14 Sur 34 Sudoeste 0 -- -- 47
2019-09-20 14:00:00 25.5 14 Sudoeste 27 Sur 0 -- -- 45
2019-09-20 13:00:00 24.4 14 Sudoeste 27 Sudoeste 0 -- -- 50
2019-09-20 12:00:00 23.9 9 Sudoeste 26 Sudeste 0 -- -- 53
2019-09-20 11:00:00 22.3 6 Sudoeste 20 Sudoeste 0 -- -- 58
2019-09-20 10:00:00 21 8 Sudeste 13 Sudeste 0 -- -- 61
2019-09-20 09:00:00 18.4 3 Nordeste 9 Oeste 0 -- -- 69
2019-09-20 08:00:00 18.1 3 Este 11 Sudeste 0 -- -- 69
2019-09-20 07:00:00 18.7 4 Nordeste 10 Sudeste 0 -- -- 68
2019-09-20 06:00:00 19.4 6 Sudeste 13 Sudoeste 0 -- -- 65
2019-09-20 05:00:00 19.4 8 Sudoeste 11 Sudoeste 0 -- -- 66
2019-09-20 04:00:00 20.6 7 Oeste 15 Oeste 0 -- -- 62
2019-09-20 03:00:00 21 9 Sudoeste 13 Sudoeste 0 -- -- 60
2019-09-20 02:00:00 21.6 5 Sudoeste 13 Sudoeste 0 -- -- 57
2019-09-20 01:00:00 22 8 Sudoeste 14 Oeste 0 -- -- 54
2019-09-20 00:00:00 22.8 10 Oeste 18 Sudoeste 0 -- -- 52
2019-09-19 23:00:00 23.7 9 Oeste 18 Sudoeste 0 -- -- 48
2019-09-19 22:00:00 24.7 10 Sudoeste 26 Oeste 0 -- -- 42
2019-09-19 21:00:00 25.3 11 Sudoeste 12 Sudoeste 0 -- -- 36
2019-09-19 20:00:00 28 6 Sudoeste 19 Sur 0 -- -- 33
2019-09-19 19:00:00 29.9 10 Sudoeste 29 Sudoeste 0 -- -- 32
2019-09-19 18:00:00 29.4 13 Sudoeste 29 Sudoeste 0 -- -- 33
2019-09-19 17:00:00 30.7 12 Oeste 27 Sudeste 0 -- -- 31
2019-09-19 16:00:00 30 9 Sudoeste 28 Sur 0 -- -- 34
2019-09-19 15:00:00 29.9 8 Sur 25 Sur 0 -- -- 35
2019-09-19 14:00:00 28.7 10 Sudoeste 20 Sur 0 -- -- 38
2019-09-19 13:00:00 27.4 6 Noroeste 12 Oeste 0 -- -- 43
2019-09-19 12:00:00 25.1 6 Nordeste 10 Este 0 -- -- 49
2019-09-19 11:00:00 22.5 3 Nordeste 8 Este 0 -- -- 56
2019-09-19 10:00:00 20.2 3 Nordeste 5 Nordeste 0 -- -- 64
2019-09-19 09:00:00 17.5 2 Este 5 Este 0 -- -- 72
2019-09-19 08:00:00 16.6 0 Calma 7 Sudeste 0 -- -- 73
2019-09-19 07:00:00 17.4 6 Sur 9 Sur 0 -- -- 73
2019-09-19 06:00:00 18.2 2 Sudeste 5 Sudeste 0 -- -- 67
2019-09-19 05:00:00 18.2 0 Calma 17 Sudoeste 0 -- -- 64
2019-09-19 04:00:00 21.6 13 Sudoeste 18 Sudoeste 0 -- -- 58
2019-09-19 03:00:00 20.9 5 Oeste 13 Sudoeste 0 -- -- 61
2019-09-19 02:00:00 21.4 11 Sudoeste 16 Oeste 0 -- -- 61
2019-09-19 01:00:00 22.1 8 Sudoeste 17 Sudoeste 0 -- -- 56
2019-09-19 00:00:00 23.5 10 Sudoeste 22 Sudoeste 0 -- -- 48
2019-09-18 23:00:00 25 11 Sudoeste 22 Sur 0 -- -- 37
2019-09-18 22:00:00 25.8 12 Sur 17 Sudoeste 0 -- -- 35
2019-09-18 21:00:00 26 10 Sudoeste 11 Sudoeste 0 -- -- 33
2019-09-18 20:00:00 28.2 8 Sur 18 Sur 0 -- -- 30
2019-09-18 19:00:00 29.9 9 Oeste 17 Sudoeste 0 -- -- 26
2019-09-18 18:00:00 30.6 10 Oeste 26 Oeste 0 -- -- 26
2019-09-18 17:00:00 30.8 10 Sudoeste 29 Oeste 0 -- -- 31
2019-09-18 16:00:00 30.2 8 Sur 27 Sudoeste 0 -- -- 34
2019-09-18 15:00:00 29.5 10 Sur 26 Sur 0 -- -- 37
2019-09-18 14:00:00 29 8 Sur 32 Norte 0 -- -- 39
2019-09-18 13:00:00 27.2 8 Nordeste 14 Este 0 -- -- 45
2019-09-18 12:00:00 25 5 Nordeste 12 Este 0 -- -- 50
2019-09-18 11:00:00 22.1 4 Nordeste 9 Nordeste 0 -- -- 57
2019-09-18 10:00:00 19 4 Norte 8 Nordeste 0 -- -- 67
2019-09-18 09:00:00 15.9 2 Oeste 5 Sur 0 -- -- 78
2019-09-18 08:00:00 15.5 2 Sudeste 9 Este 0 -- -- 79
2019-09-18 07:00:00 16.1 4 Este 7 Este 0 -- -- 78
2019-09-18 06:00:00 16.4 2 Este 8 Este 0 -- -- 75
2019-09-18 05:00:00 17.1 4 Este 9 Sudeste 0 -- -- 72
2019-09-18 04:00:00 17.5 4 Este 8 Sudeste 0 -- -- 69
2019-09-18 03:00:00 17.8 0 Calma 5 Sur 0 -- -- 66
2019-09-18 02:00:00 19.6 3 Oeste 20 Sudeste 0 -- -- 64
2019-09-18 01:00:00 20.9 6 Este 24 Este 0 -- -- 60
2019-09-18 00:00:00 20.7 13 Este 31 Este 0 -- -- 60
2019-09-17 23:00:00 22.1 21 Este 47 Este 0 -- -- 54
2019-09-17 22:00:00 23.6 13 Este 36 Este 0 -- -- 53
2019-09-17 21:00:00 24.8 7 Nordeste 28 Norte 0 -- -- 49